sensor_id;sensor_type;location;lat;lon;timestamp;P1;durP1;ratioP1;P2;durP2;ratioP2
13090;SDS011;6611;52.604;13.438;2023-02-02T00:04:37;8.23;;;1.23;;
13090;SDS011;6611;52.604;13.438;2023-02-02T00:09:39;3.77;;;1.53;;
13090;SDS011;6611;52.604;13.438;2023-02-02T00:14:42;7.73;;;1.73;;
13090;SDS011;6611;52.604;13.438;2023-02-02T00:19:43;5.57;;;1.40;;
13090;SDS011;6611;52.604;13.438;2023-02-02T00:24:45;4.83;;;1.83;;
13090;SDS011;6611;52.604;13.438;2023-02-02T00:29:48;5.03;;;1.10;;
13090;SDS011;6611;52.604;13.438;2023-02-02T00:34:52;8.27;;;1.83;;
13090;SDS011;6611;52.604;13.438;2023-02-02T00:39:54;9.70;;;2.50;;
13090;SDS011;6611;52.604;13.438;2023-02-02T00:44:57;4.73;;;1.30;;
13090;SDS011;6611;52.604;13.438;2023-02-02T00:50:17;8.73;;;1.50;;
13090;SDS011;6611;52.604;13.438;2023-02-02T00:55:20;4.10;;;1.90;;
13090;SDS011;6611;52.604;13.438;2023-02-02T01:00:23;4.67;;;1.50;;
13090;SDS011;6611;52.604;13.438;2023-02-02T01:05:26;7.07;;;1.80;;
13090;SDS011;6611;52.604;13.438;2023-02-02T01:10:28;7.07;;;2.20;;
13090;SDS011;6611;52.604;13.438;2023-02-02T01:15:31;5.17;;;1.23;;
13090;SDS011;6611;52.604;13.438;2023-02-02T01:20:32;5.87;;;0.97;;
13090;SDS011;6611;52.604;13.438;2023-02-02T01:25:34;5.97;;;1.70;;
13090;SDS011;6611;52.604;13.438;2023-02-02T01:30:38;7.13;;;1.60;;
13090;SDS011;6611;52.604;13.438;2023-02-02T01:35:43;4.90;;;1.63;;
13090;SDS011;6611;52.604;13.438;2023-02-02T01:40:46;7.57;;;1.60;;
13090;SDS011;6611;52.604;13.438;2023-02-02T01:45:51;9.07;;;1.40;;
13090;SDS011;6611;52.604;13.438;2023-02-02T01:50:54;11.70;;;1.63;;
13090;SDS011;6611;52.604;13.438;2023-02-02T01:56:02;2.60;;;1.20;;
13090;SDS011;6611;52.604;13.438;2023-02-02T02:01:07;7.03;;;1.43;;
13090;SDS011;6611;52.604;13.438;2023-02-02T02:06:09;4.30;;;1.23;;
13090;SDS011;6611;52.604;13.438;2023-02-02T02:11:13;5.80;;;1.63;;
13090;SDS011;6611;52.604;13.438;2023-02-02T02:16:17;5.30;;;1.47;;
13090;SDS011;6611;52.604;13.438;2023-02-02T02:21:27;9.47;;;1.37;;
13090;SDS011;6611;52.604;13.438;2023-02-02T02:32:52;3.57;;;1.30;;
13090;SDS011;6611;52.604;13.438;2023-02-02T02:38:03;10.87;;;1.60;;
13090;SDS011;6611;52.604;13.438;2023-02-02T02:43:11;5.00;;;1.20;;
13090;SDS011;6611;52.604;13.438;2023-02-02T02:48:21;7.93;;;1.50;;
13090;SDS011;6611;52.604;13.438;2023-02-02T02:53:23;8.43;;;1.40;;
13090;SDS011;6611;52.604;13.438;2023-02-02T02:58:26;8.93;;;0.93;;
13090;SDS011;6611;52.604;13.438;2023-02-02T03:09:05;5.17;;;1.40;;
13090;SDS011;6611;52.604;13.438;2023-02-02T03:14:10;4.93;;;1.20;;
13090;SDS011;6611;52.604;13.438;2023-02-02T03:19:13;4.83;;;0.97;;
13090;SDS011;6611;52.604;13.438;2023-02-02T03:24:14;2.60;;;0.87;;
13090;SDS011;6611;52.604;13.438;2023-02-02T03:29:16;5.30;;;1.37;;
13090;SDS011;6611;52.604;13.438;2023-02-02T03:34:20;5.93;;;0.93;;
13090;SDS011;6611;52.604;13.438;2023-02-02T03:39:21;4.87;;;1.20;;
13090;SDS011;6611;52.604;13.438;2023-02-02T03:44:23;3.07;;;1.00;;
13090;SDS011;6611;52.604;13.438;2023-02-02T03:49:26;6.03;;;1.30;;
13090;SDS011;6611;52.604;13.438;2023-02-02T03:54:28;7.40;;;1.73;;
13090;SDS011;6611;52.604;13.438;2023-02-02T03:59:29;7.50;;;1.20;;
13090;SDS011;6611;52.604;13.438;2023-02-02T04:04:32;5.33;;;1.67;;
13090;SDS011;6611;52.604;13.438;2023-02-02T04:09:34;5.40;;;1.07;;
13090;SDS011;6611;52.604;13.438;2023-02-02T04:14:36;3.03;;;1.03;;
13090;SDS011;6611;52.604;13.438;2023-02-02T04:19:39;3.77;;;1.13;;
13090;SDS011;6611;52.604;13.438;2023-02-02T04:24:40;4.27;;;1.10;;
13090;SDS011;6611;52.604;13.438;2023-02-02T04:29:42;7.73;;;1.03;;
13090;SDS011;6611;52.604;13.438;2023-02-02T04:34:45;2.70;;;0.87;;
13090;SDS011;6611;52.604;13.438;2023-02-02T04:39:47;3.33;;;1.20;;
13090;SDS011;6611;52.604;13.438;2023-02-02T04:44:49;6.53;;;1.67;;
13090;SDS011;6611;52.604;13.438;2023-02-02T04:49:52;4.67;;;0.90;;
13090;SDS011;6611;52.604;13.438;2023-02-02T04:54:54;3.43;;;1.10;;
13090;SDS011;6611;52.604;13.438;2023-02-02T04:59:56;4.97;;;0.90;;
13090;SDS011;6611;52.604;13.438;2023-02-02T05:04:59;4.20;;;1.40;;
13090;SDS011;6611;52.604;13.438;2023-02-02T05:10:00;5.90;;;1.03;;
13090;SDS011;6611;52.604;13.438;2023-02-02T05:15:02;4.17;;;1.40;;
13090;SDS011;6611;52.604;13.438;2023-02-02T05:20:07;2.77;;;0.87;;
13090;SDS011;6611;52.604;13.438;2023-02-02T05:25:09;2.87;;;1.07;;
13090;SDS011;6611;52.604;13.438;2023-02-02T05:30:12;6.40;;;1.00;;
13090;SDS011;6611;52.604;13.438;2023-02-02T05:35:16;1.50;;;0.77;;
13090;SDS011;6611;52.604;13.438;2023-02-02T05:40:17;4.27;;;1.10;;
13090;SDS011;6611;52.604;13.438;2023-02-02T05:45:19;2.57;;;1.47;;
13090;SDS011;6611;52.604;13.438;2023-02-02T05:50:22;2.37;;;1.00;;
13090;SDS011;6611;52.604;13.438;2023-02-02T05:55:24;3.17;;;1.17;;
13090;SDS011;6611;52.604;13.438;2023-02-02T06:00:26;7.13;;;1.20;;
13090;SDS011;6611;52.604;13.438;2023-02-02T06:05:29;9.17;;;1.13;;
13090;SDS011;6611;52.604;13.438;2023-02-02T06:10:30;2.70;;;0.90;;
13090;SDS011;6611;52.604;13.438;2023-02-02T06:15:32;3.90;;;1.10;;
13090;SDS011;6611;52.604;13.438;2023-02-02T06:20:35;4.07;;;1.43;;
13090;SDS011;6611;52.604;13.438;2023-02-02T06:25:37;4.10;;;0.80;;
13090;SDS011;6611;52.604;13.438;2023-02-02T06:30:39;3.47;;;1.40;;
13090;SDS011;6611;52.604;13.438;2023-02-02T06:35:42;1.60;;;0.90;;
13090;SDS011;6611;52.604;13.438;2023-02-02T06:40:43;4.97;;;1.00;;
13090;SDS011;6611;52.604;13.438;2023-02-02T06:45:45;3.77;;;0.90;;
13090;SDS011;6611;52.604;13.438;2023-02-02T06:50:48;4.60;;;1.10;;
13090;SDS011;6611;52.604;13.438;2023-02-02T06:55:53;5.87;;;1.33;;
13090;SDS011;6611;52.604;13.438;2023-02-02T07:00:54;4.43;;;0.80;;
13090;SDS011;6611;52.604;13.438;2023-02-02T07:06:11;4.87;;;1.10;;
13090;SDS011;6611;52.604;13.438;2023-02-02T07:11:13;2.33;;;0.80;;
13090;SDS011;6611;52.604;13.438;2023-02-02T07:16:15;4.70;;;1.30;;
13090;SDS011;6611;52.604;13.438;2023-02-02T07:21:20;1.90;;;1.30;;
13090;SDS011;6611;52.604;13.438;2023-02-02T07:26:23;7.73;;;1.83;;
13090;SDS011;6611;52.604;13.438;2023-02-02T07:31:26;6.37;;;1.00;;
13090;SDS011;6611;52.604;13.438;2023-02-02T07:36:29;4.83;;;0.90;;
13090;SDS011;6611;52.604;13.438;2023-02-02T07:41:32;4.47;;;0.87;;
13090;SDS011;6611;52.604;13.438;2023-02-02T07:46:35;4.37;;;1.07;;
13090;SDS011;6611;52.604;13.438;2023-02-02T07:51:38;3.77;;;0.90;;
13090;SDS011;6611;52.604;13.438;2023-02-02T07:56:40;6.83;;;1.40;;
13090;SDS011;6611;52.604;13.438;2023-02-02T08:01:42;5.23;;;1.00;;
13090;SDS011;6611;52.604;13.438;2023-02-02T08:06:45;2.97;;;1.37;;
13090;SDS011;6611;52.604;13.438;2023-02-02T08:11:47;8.80;;;1.37;;
13090;SDS011;6611;52.604;13.438;2023-02-02T08:16:49;6.70;;;1.60;;
13090;SDS011;6611;52.604;13.438;2023-02-02T08:21:52;1.27;;;0.70;;
13090;SDS011;6611;52.604;13.438;2023-02-02T08:26:53;2.50;;;0.93;;
13090;SDS011;6611;52.604;13.438;2023-02-02T08:31:55;4.30;;;1.03;;
13090;SDS011;6611;52.604;13.438;2023-02-02T08:36:59;2.77;;;1.07;;
13090;SDS011;6611;52.604;13.438;2023-02-02T08:42:00;2.03;;;0.90;;
13090;SDS011;6611;52.604;13.438;2023-02-02T08:47:02;6.47;;;1.50;;
13090;SDS011;6611;52.604;13.438;2023-02-02T08:52:05;5.87;;;1.27;;
13090;SDS011;6611;52.604;13.438;2023-02-02T08:57:08;5.10;;;1.57;;
13090;SDS011;6611;52.604;13.438;2023-02-02T09:02:10;4.93;;;1.13;;
13090;SDS011;6611;52.604;13.438;2023-02-02T09:07:14;5.30;;;0.87;;
13090;SDS011;6611;52.604;13.438;2023-02-02T09:12:15;3.63;;;1.43;;
13090;SDS011;6611;52.604;13.438;2023-02-02T09:17:17;2.07;;;0.70;;
13090;SDS011;6611;52.604;13.438;2023-02-02T09:22:20;3.07;;;1.23;;
13090;SDS011;6611;52.604;13.438;2023-02-02T09:27:22;4.40;;;0.97;;
13090;SDS011;6611;52.604;13.438;2023-02-02T09:32:23;5.07;;;1.20;;
13090;SDS011;6611;52.604;13.438;2023-02-02T09:37:26;3.00;;;1.33;;
13090;SDS011;6611;52.604;13.438;2023-02-02T09:42:33;5.53;;;1.03;;
13090;SDS011;6611;52.604;13.438;2023-02-02T09:47:54;4.23;;;1.50;;
13090;SDS011;6611;52.604;13.438;2023-02-02T09:53:00;4.93;;;1.10;;
13090;SDS011;6611;52.604;13.438;2023-02-02T09:58:06;2.73;;;1.13;;
13090;SDS011;6611;52.604;13.438;2023-02-02T10:03:15;8.63;;;1.27;;
13090;SDS011;6611;52.604;13.438;2023-02-02T10:08:25;3.23;;;0.80;;
13090;SDS011;6611;52.604;13.438;2023-02-02T10:13:32;5.27;;;1.20;;
13090;SDS011;6611;52.604;13.438;2023-02-02T10:18:39;4.10;;;1.27;;
13090;SDS011;6611;52.604;13.438;2023-02-02T10:23:48;2.60;;;1.07;;
13090;SDS011;6611;52.604;13.438;2023-02-02T10:28:53;5.17;;;1.10;;
13090;SDS011;6611;52.604;13.438;2023-02-02T10:34:07;4.87;;;1.40;;
13090;SDS011;6611;52.604;13.438;2023-02-02T10:39:19;2.50;;;1.00;;
13090;SDS011;6611;52.604;13.438;2023-02-02T10:44:30;5.83;;;1.37;;
13090;SDS011;6611;52.604;13.438;2023-02-02T10:49:37;6.07;;;0.97;;
13090;SDS011;6611;52.604;13.438;2023-02-02T10:54:49;3.53;;;1.07;;
13090;SDS011;6611;52.604;13.438;2023-02-02T11:00:00;2.23;;;0.70;;
13090;SDS011;6611;52.604;13.438;2023-02-02T11:05:11;3.03;;;0.90;;
13090;SDS011;6611;52.604;13.438;2023-02-02T11:10:34;2.93;;;0.67;;
13090;SDS011;6611;52.604;13.438;2023-02-02T11:15:36;4.67;;;1.20;;
13090;SDS011;6611;52.604;13.438;2023-02-02T11:20:38;3.33;;;1.00;;
13090;SDS011;6611;52.604;13.438;2023-02-02T11:25:40;5.47;;;0.70;;
13090;SDS011;6611;52.604;13.438;2023-02-02T11:30:45;5.30;;;0.80;;
13090;SDS011;6611;52.604;13.438;2023-02-02T11:35:51;6.97;;;1.27;;
13090;SDS011;6611;52.604;13.438;2023-02-02T11:40:57;3.40;;;0.90;;
13090;SDS011;6611;52.604;13.438;2023-02-02T11:46:04;4.23;;;0.97;;
13090;SDS011;6611;52.604;13.438;2023-02-02T11:51:07;3.50;;;0.73;;
13090;SDS011;6611;52.604;13.438;2023-02-02T11:56:23;4.37;;;0.97;;
13090;SDS011;6611;52.604;13.438;2023-02-02T12:01:27;3.33;;;0.80;;
13090;SDS011;6611;52.604;13.438;2023-02-02T12:06:33;3.13;;;1.27;;
13090;SDS011;6611;52.604;13.438;2023-02-02T12:11:40;1.00;;;0.67;;
13090;SDS011;6611;52.604;13.438;2023-02-02T12:16:52;1.50;;;1.00;;
13090;SDS011;6611;52.604;13.438;2023-02-02T12:22:01;4.33;;;0.93;;
13090;SDS011;6611;52.604;13.438;2023-02-02T12:27:16;3.87;;;0.93;;
13090;SDS011;6611;52.604;13.438;2023-02-02T12:32:38;2.03;;;0.73;;
13090;SDS011;6611;52.604;13.438;2023-02-02T12:37:51;7.37;;;0.93;;
13090;SDS011;6611;52.604;13.438;2023-02-02T12:43:07;3.63;;;1.13;;
13090;SDS011;6611;52.604;13.438;2023-02-02T12:48:16;3.57;;;0.80;;
13090;SDS011;6611;52.604;13.438;2023-02-02T12:53:29;3.10;;;1.10;;
13090;SDS011;6611;52.604;13.438;2023-02-02T12:58:41;4.77;;;1.07;;
13090;SDS011;6611;52.604;13.438;2023-02-02T13:03:56;2.63;;;0.87;;
13090;SDS011;6611;52.604;13.438;2023-02-02T13:09:06;3.03;;;0.80;;
13090;SDS011;6611;52.604;13.438;2023-02-02T13:14:14;3.70;;;1.10;;
13090;SDS011;6611;52.604;13.438;2023-02-02T13:19:22;2.43;;;0.80;;
13090;SDS011;6611;52.604;13.438;2023-02-02T13:24:30;2.90;;;0.70;;
13090;SDS011;6611;52.604;13.438;2023-02-02T13:29:38;2.50;;;0.80;;
13090;SDS011;6611;52.604;13.438;2023-02-02T13:34:45;1.63;;;0.70;;
13090;SDS011;6611;52.604;13.438;2023-02-02T13:39:52;1.73;;;0.60;;
13090;SDS011;6611;52.604;13.438;2023-02-02T13:44:59;0.80;;;0.50;;
13090;SDS011;6611;52.604;13.438;2023-02-02T13:50:09;7.27;;;2.83;;
13090;SDS011;6611;52.604;13.438;2023-02-02T14:00:51;4.57;;;1.73;;
13090;SDS011;6611;52.604;13.438;2023-02-02T14:06:01;1.47;;;0.60;;
13090;SDS011;6611;52.604;13.438;2023-02-02T14:11:05;1.00;;;0.47;;
13090;SDS011;6611;52.604;13.438;2023-02-02T14:16:19;1.63;;;0.50;;
13090;SDS011;6611;52.604;13.438;2023-02-02T14:27:03;0.90;;;0.60;;
13090;SDS011;6611;52.604;13.438;2023-02-02T14:38:39;1.20;;;0.63;;
13090;SDS011;6611;52.604;13.438;2023-02-02T14:44:06;0.50;;;0.50;;
13090;SDS011;6611;52.604;13.438;2023-02-02T14:49:13;2.00;;;0.40;;
13090;SDS011;6611;52.604;13.438;2023-02-02T14:54:19;0.57;;;0.47;;
13090;SDS011;6611;52.604;13.438;2023-02-02T14:59:25;0.53;;;0.50;;
13090;SDS011;6611;52.604;13.438;2023-02-02T15:04:32;1.03;;;0.57;;
13090;SDS011;6611;52.604;13.438;2023-02-02T15:09:37;1.97;;;0.70;;
13090;SDS011;6611;52.604;13.438;2023-02-02T15:14:40;1.50;;;0.90;;
13090;SDS011;6611;52.604;13.438;2023-02-02T15:19:46;1.27;;;0.60;;
13090;SDS011;6611;52.604;13.438;2023-02-02T15:24:55;2.00;;;0.80;;
13090;SDS011;6611;52.604;13.438;2023-02-02T15:30:00;3.47;;;0.70;;
13090;SDS011;6611;52.604;13.438;2023-02-02T15:35:06;1.43;;;0.73;;
13090;SDS011;6611;52.604;13.438;2023-02-02T15:40:20;0.90;;;0.50;;
13090;SDS011;6611;52.604;13.438;2023-02-02T15:45:31;2.13;;;0.73;;
13090;SDS011;6611;52.604;13.438;2023-02-02T15:50:38;2.27;;;0.87;;
13090;SDS011;6611;52.604;13.438;2023-02-02T15:55:45;2.30;;;0.93;;
13090;SDS011;6611;52.604;13.438;2023-02-02T16:00:53;0.90;;;0.73;;
13090;SDS011;6611;52.604;13.438;2023-02-02T16:05:57;0.60;;;0.60;;
13090;SDS011;6611;52.604;13.438;2023-02-02T16:11:03;1.27;;;0.57;;
13090;SDS011;6611;52.604;13.438;2023-02-02T16:16:20;1.37;;;0.80;;
13090;SDS011;6611;52.604;13.438;2023-02-02T16:21:25;1.97;;;1.03;;
13090;SDS011;6611;52.604;13.438;2023-02-02T16:26:29;2.97;;;1.50;;
13090;SDS011;6611;52.604;13.438;2023-02-02T16:31:33;2.70;;;1.10;;
13090;SDS011;6611;52.604;13.438;2023-02-02T16:36:37;1.67;;;0.90;;
13090;SDS011;6611;52.604;13.438;2023-02-02T16:41:39;3.30;;;1.20;;
13090;SDS011;6611;52.604;13.438;2023-02-02T16:46:42;1.40;;;1.00;;
13090;SDS011;6611;52.604;13.438;2023-02-02T16:51:47;2.47;;;1.37;;
13090;SDS011;6611;52.604;13.438;2023-02-02T16:56:50;1.83;;;1.20;;
13090;SDS011;6611;52.604;13.438;2023-02-02T17:02:00;3.37;;;1.40;;
13090;SDS011;6611;52.604;13.438;2023-02-02T17:07:08;1.90;;;1.47;;
13090;SDS011;6611;52.604;13.438;2023-02-02T17:12:22;1.37;;;1.03;;
13090;SDS011;6611;52.604;13.438;2023-02-02T17:17:25;4.00;;;1.40;;
13090;SDS011;6611;52.604;13.438;2023-02-02T17:22:29;2.97;;;1.50;;
13090;SDS011;6611;52.604;13.438;2023-02-02T17:27:32;3.03;;;1.60;;
13090;SDS011;6611;52.604;13.438;2023-02-02T17:32:35;3.23;;;1.70;;
13090;SDS011;6611;52.604;13.438;2023-02-02T17:37:38;3.67;;;1.60;;
13090;SDS011;6611;52.604;13.438;2023-02-02T17:42:40;4.67;;;1.60;;
13090;SDS011;6611;52.604;13.438;2023-02-02T17:47:43;3.07;;;1.40;;
13090;SDS011;6611;52.604;13.438;2023-02-02T17:52:46;3.73;;;1.57;;
13090;SDS011;6611;52.604;13.438;2023-02-02T17:57:49;3.07;;;1.90;;
13090;SDS011;6611;52.604;13.438;2023-02-02T18:02:52;3.47;;;2.10;;
13090;SDS011;6611;52.604;13.438;2023-02-02T18:07:59;2.40;;;1.63;;
13090;SDS011;6611;52.604;13.438;2023-02-02T18:13:00;2.83;;;1.83;;
13090;SDS011;6611;52.604;13.438;2023-02-02T18:18:02;3.23;;;2.20;;
13090;SDS011;6611;52.604;13.438;2023-02-02T18:23:05;4.17;;;2.67;;
13090;SDS011;6611;52.604;13.438;2023-02-02T18:28:08;6.27;;;4.63;;
13090;SDS011;6611;52.604;13.438;2023-02-02T18:33:10;4.43;;;3.43;;
13090;SDS011;6611;52.604;13.438;2023-02-02T18:38:14;4.37;;;3.60;;
13090;SDS011;6611;52.604;13.438;2023-02-02T18:43:17;9.13;;;4.80;;
13090;SDS011;6611;52.604;13.438;2023-02-02T18:48:18;8.30;;;5.20;;
13090;SDS011;6611;52.604;13.438;2023-02-02T18:53:21;10.37;;;6.20;;
13090;SDS011;6611;52.604;13.438;2023-02-02T18:58:23;9.87;;;4.73;;
13090;SDS011;6611;52.604;13.438;2023-02-02T19:03:26;7.50;;;3.93;;
13090;SDS011;6611;52.604;13.438;2023-02-02T19:08:30;7.67;;;4.33;;
13090;SDS011;6611;52.604;13.438;2023-02-02T19:13:31;7.60;;;3.57;;
13090;SDS011;6611;52.604;13.438;2023-02-02T19:18:34;8.10;;;4.83;;
13090;SDS011;6611;52.604;13.438;2023-02-02T19:23:37;8.37;;;5.60;;
13090;SDS011;6611;52.604;13.438;2023-02-02T19:28:41;11.60;;;5.67;;
13090;SDS011;6611;52.604;13.438;2023-02-02T19:33:43;8.40;;;5.37;;
13090;SDS011;6611;52.604;13.438;2023-02-02T19:38:48;14.07;;;7.40;;
13090;SDS011;6611;52.604;13.438;2023-02-02T19:43:54;18.47;;;8.50;;
13090;SDS011;6611;52.604;13.438;2023-02-02T19:48:59;16.27;;;8.30;;
13090;SDS011;6611;52.604;13.438;2023-02-02T19:54:11;10.57;;;6.87;;
13090;SDS011;6611;52.604;13.438;2023-02-02T19:59:24;16.67;;;8.50;;
13090;SDS011;6611;52.604;13.438;2023-02-02T20:04:29;17.40;;;9.27;;
13090;SDS011;6611;52.604;13.438;2023-02-02T20:09:34;20.00;;;10.73;;
13090;SDS011;6611;52.604;13.438;2023-02-02T20:14:36;21.47;;;11.37;;
13090;SDS011;6611;52.604;13.438;2023-02-02T20:19:39;20.20;;;10.73;;
13090;SDS011;6611;52.604;13.438;2023-02-02T20:24:43;18.63;;;11.03;;
13090;SDS011;6611;52.604;13.438;2023-02-02T20:29:48;17.83;;;9.83;;
13090;SDS011;6611;52.604;13.438;2023-02-02T20:34:51;13.03;;;8.33;;
13090;SDS011;6611;52.604;13.438;2023-02-02T20:39:56;13.73;;;8.23;;
13090;SDS011;6611;52.604;13.438;2023-02-02T20:44:59;13.23;;;8.27;;
13090;SDS011;6611;52.604;13.438;2023-02-02T20:50:00;12.97;;;7.97;;
13090;SDS011;6611;52.604;13.438;2023-02-02T20:55:05;14.90;;;9.23;;
13090;SDS011;6611;52.604;13.438;2023-02-02T21:00:08;17.57;;;9.03;;
13090;SDS011;6611;52.604;13.438;2023-02-02T21:05:11;14.13;;;7.67;;
13090;SDS011;6611;52.604;13.438;2023-02-02T21:15:17;13.03;;;7.97;;
13090;SDS011;6611;52.604;13.438;2023-02-02T21:20:19;14.83;;;8.47;;
13090;SDS011;6611;52.604;13.438;2023-02-02T21:25:22;15.73;;;9.07;;
13090;SDS011;6611;52.604;13.438;2023-02-02T21:30:24;16.50;;;9.60;;
13090;SDS011;6611;52.604;13.438;2023-02-02T21:35:25;25.00;;;11.30;;
13090;SDS011;6611;52.604;13.438;2023-02-02T21:40:29;21.77;;;11.87;;
13090;SDS011;6611;52.604;13.438;2023-02-02T21:45:33;21.70;;;11.30;;
13090;SDS011;6611;52.604;13.438;2023-02-02T21:50:38;19.57;;;11.37;;
13090;SDS011;6611;52.604;13.438;2023-02-02T21:55:43;18.23;;;10.80;;
13090;SDS011;6611;52.604;13.438;2023-02-02T22:00:46;21.87;;;12.00;;
13090;SDS011;6611;52.604;13.438;2023-02-02T22:05:48;18.50;;;11.07;;
13090;SDS011;6611;52.604;13.438;2023-02-02T22:10:51;18.53;;;10.03;;
13090;SDS011;6611;52.604;13.438;2023-02-02T22:15:53;16.37;;;10.63;;
13090;SDS011;6611;52.604;13.438;2023-02-02T22:20:54;17.53;;;10.07;;
13090;SDS011;6611;52.604;13.438;2023-02-02T22:25:58;20.00;;;10.67;;
13090;SDS011;6611;52.604;13.438;2023-02-02T22:31:00;19.60;;;9.70;;
13090;SDS011;6611;52.604;13.438;2023-02-02T22:36:04;16.43;;;9.27;;
13090;SDS011;6611;52.604;13.438;2023-02-02T22:41:07;19.47;;;9.57;;
13090;SDS011;6611;52.604;13.438;2023-02-02T22:46:09;14.13;;;8.47;;
13090;SDS011;6611;52.604;13.438;2023-02-02T22:51:10;16.63;;;9.13;;
13090;SDS011;6611;52.604;13.438;2023-02-02T22:56:13;17.63;;;9.77;;
13090;SDS011;6611;52.604;13.438;2023-02-02T23:01:15;16.00;;;9.03;;
13090;SDS011;6611;52.604;13.438;2023-02-02T23:06:17;15.33;;;8.47;;
13090;SDS011;6611;52.604;13.438;2023-02-02T23:11:20;16.10;;;7.90;;
13090;SDS011;6611;52.604;13.438;2023-02-02T23:16:21;12.30;;;7.27;;
13090;SDS011;6611;52.604;13.438;2023-02-02T23:21:23;12.57;;;7.83;;
13090;SDS011;6611;52.604;13.438;2023-02-02T23:26:26;13.73;;;7.30;;
13090;SDS011;6611;52.604;13.438;2023-02-02T23:31:28;15.03;;;7.93;;
13090;SDS011;6611;52.604;13.438;2023-02-02T23:36:30;14.93;;;9.00;;
13090;SDS011;6611;52.604;13.438;2023-02-02T23:41:33;13.57;;;7.50;;
13090;SDS011;6611;52.604;13.438;2023-02-02T23:46:34;14.50;;;7.33;;
13090;SDS011;6611;52.604;13.438;2023-02-02T23:51:37;14.83;;;7.10;;
13090;SDS011;6611;52.604;13.438;2023-02-02T23:56:41;12.40;;;6.03;;
